sensor_id;sensor_type;location;lat;lon;timestamp;temperature;humidity
28546;DHT22;15749;49.606;8.738;2022-07-19T00:00:24;25.70;72.30
28546;DHT22;15749;49.606;8.738;2022-07-19T00:03:12;25.70;72.30
28546;DHT22;15749;49.606;8.738;2022-07-19T00:06:00;25.60;73.30
28546;DHT22;15749;49.606;8.738;2022-07-19T00:08:47;25.60;72.50
28546;DHT22;15749;49.606;8.738;2022-07-19T00:11:36;25.60;73.30
28546;DHT22;15749;49.606;8.738;2022-07-19T00:14:24;25.60;72.90
28546;DHT22;15749;49.606;8.738;2022-07-19T00:17:11;25.50;72.10
28546;DHT22;15749;49.606;8.738;2022-07-19T00:19:59;25.50;72.30
28546;DHT22;15749;49.606;8.738;2022-07-19T00:22:47;25.50;72.30
28546;DHT22;15749;49.606;8.738;2022-07-19T00:25:35;25.40;72.70
28546;DHT22;15749;49.606;8.738;2022-07-19T00:28:24;25.40;73.10
28546;DHT22;15749;49.606;8.738;2022-07-19T00:31:12;25.40;72.40
28546;DHT22;15749;49.606;8.738;2022-07-19T00:33:59;25.30;71.80
28546;DHT22;15749;49.606;8.738;2022-07-19T00:36:46;25.30;72.20
28546;DHT22;15749;49.606;8.738;2022-07-19T00:39:34;25.30;72.40
28546;DHT22;15749;49.606;8.738;2022-07-19T00:42:22;25.30;72.60
28546;DHT22;15749;49.606;8.738;2022-07-19T00:45:11;25.20;72.90
28546;DHT22;15749;49.606;8.738;2022-07-19T00:47:58;25.20;72.80
28546;DHT22;15749;49.606;8.738;2022-07-19T00:50:46;25.20;72.50
28546;DHT22;15749;49.606;8.738;2022-07-19T00:53:36;25.10;72.70
28546;DHT22;15749;49.606;8.738;2022-07-19T00:56:25;25.10;71.30
28546;DHT22;15749;49.606;8.738;2022-07-19T00:59:14;25.10;72.10
28546;DHT22;15749;49.606;8.738;2022-07-19T01:02:04;25.00;72.60
28546;DHT22;15749;49.606;8.738;2022-07-19T01:04:52;25.00;71.90
28546;DHT22;15749;49.606;8.738;2022-07-19T01:07:42;25.00;72.50
28546;DHT22;15749;49.606;8.738;2022-07-19T01:10:30;24.90;72.70
28546;DHT22;15749;49.606;8.738;2022-07-19T01:13:18;24.90;72.40
28546;DHT22;15749;49.606;8.738;2022-07-19T01:16:07;24.90;72.40
28546;DHT22;15749;49.606;8.738;2022-07-19T01:18:56;24.80;72.70
28546;DHT22;15749;49.606;8.738;2022-07-19T01:21:46;24.80;72.70
28546;DHT22;15749;49.606;8.738;2022-07-19T01:24:34;24.80;72.30
28546;DHT22;15749;49.606;8.738;2022-07-19T01:27:22;24.70;72.70
28546;DHT22;15749;49.606;8.738;2022-07-19T01:30:11;24.70;72.60
28546;DHT22;15749;49.606;8.738;2022-07-19T01:33:00;24.70;73.20
28546;DHT22;15749;49.606;8.738;2022-07-19T01:35:48;24.60;73.20
28546;DHT22;15749;49.606;8.738;2022-07-19T01:38:37;24.60;72.50
28546;DHT22;15749;49.606;8.738;2022-07-19T01:41:25;24.60;72.40
28546;DHT22;15749;49.606;8.738;2022-07-19T01:44:12;24.60;72.50
28546;DHT22;15749;49.606;8.738;2022-07-19T01:47:00;24.50;72.90
28546;DHT22;15749;49.606;8.738;2022-07-19T01:49:47;24.60;72.90
28546;DHT22;15749;49.606;8.738;2022-07-19T01:52:35;24.50;73.30
28546;DHT22;15749;49.606;8.738;2022-07-19T01:55:24;24.40;72.50
28546;DHT22;15749;49.606;8.738;2022-07-19T01:58:11;24.40;72.10
28546;DHT22;15749;49.606;8.738;2022-07-19T02:00:59;24.40;72.90
28546;DHT22;15749;49.606;8.738;2022-07-19T02:03:47;24.40;73.00
28546;DHT22;15749;49.606;8.738;2022-07-19T02:06:34;24.30;72.50
28546;DHT22;15749;49.606;8.738;2022-07-19T02:09:21;24.30;72.90
28546;DHT22;15749;49.606;8.738;2022-07-19T02:12:10;24.30;73.30
28546;DHT22;15749;49.606;8.738;2022-07-19T02:14:58;24.30;73.60
28546;DHT22;15749;49.606;8.738;2022-07-19T02:17:45;24.30;74.90
28546;DHT22;15749;49.606;8.738;2022-07-19T02:20:32;24.20;73.70
28546;DHT22;15749;49.606;8.738;2022-07-19T02:23:20;24.20;72.90
28546;DHT22;15749;49.606;8.738;2022-07-19T02:26:07;24.20;73.20
28546;DHT22;15749;49.606;8.738;2022-07-19T02:28:56;24.20;73.10
28546;DHT22;15749;49.606;8.738;2022-07-19T02:31:44;24.20;72.70
28546;DHT22;15749;49.606;8.738;2022-07-19T02:34:32;24.10;72.70
28546;DHT22;15749;49.606;8.738;2022-07-19T02:37:20;24.10;72.90
28546;DHT22;15749;49.606;8.738;2022-07-19T02:40:08;24.10;73.40
28546;DHT22;15749;49.606;8.738;2022-07-19T02:42:56;24.10;73.20
28546;DHT22;15749;49.606;8.738;2022-07-19T02:45:45;24.10;73.10
28546;DHT22;15749;49.606;8.738;2022-07-19T02:48:32;24.00;73.00
28546;DHT22;15749;49.606;8.738;2022-07-19T02:51:20;24.00;73.50
28546;DHT22;15749;49.606;8.738;2022-07-19T02:54:07;24.00;72.80
28546;DHT22;15749;49.606;8.738;2022-07-19T02:56:54;23.90;74.50
28546;DHT22;15749;49.606;8.738;2022-07-19T02:59:42;23.90;73.70
28546;DHT22;15749;49.606;8.738;2022-07-19T03:02:31;23.90;73.60
28546;DHT22;15749;49.606;8.738;2022-07-19T03:05:18;23.80;73.40
28546;DHT22;15749;49.606;8.738;2022-07-19T03:08:06;23.80;73.40
28546;DHT22;15749;49.606;8.738;2022-07-19T03:10:53;23.80;72.90
28546;DHT22;15749;49.606;8.738;2022-07-19T03:13:41;23.80;73.80
28546;DHT22;15749;49.606;8.738;2022-07-19T03:16:28;23.80;73.80
28546;DHT22;15749;49.606;8.738;2022-07-19T03:19:19;23.80;73.90
28546;DHT22;15749;49.606;8.738;2022-07-19T03:22:07;23.70;73.50
28546;DHT22;15749;49.606;8.738;2022-07-19T03:24:54;23.70;73.90
28546;DHT22;15749;49.606;8.738;2022-07-19T03:27:43;23.70;73.50
28546;DHT22;15749;49.606;8.738;2022-07-19T03:30:30;23.70;73.70
28546;DHT22;15749;49.606;8.738;2022-07-19T03:33:18;23.70;74.00
28546;DHT22;15749;49.606;8.738;2022-07-19T03:36:07;23.60;74.10
28546;DHT22;15749;49.606;8.738;2022-07-19T03:38:54;23.60;74.00
28546;DHT22;15749;49.606;8.738;2022-07-19T03:41:42;23.60;74.10
28546;DHT22;15749;49.606;8.738;2022-07-19T03:44:30;23.60;74.20
28546;DHT22;15749;49.606;8.738;2022-07-19T03:47:17;23.50;73.80
28546;DHT22;15749;49.606;8.738;2022-07-19T03:50:05;23.50;74.20
28546;DHT22;15749;49.606;8.738;2022-07-19T03:52:54;23.50;74.60
28546;DHT22;15749;49.606;8.738;2022-07-19T03:55:42;23.50;74.10
28546;DHT22;15749;49.606;8.738;2022-07-19T03:58:29;23.50;74.20
28546;DHT22;15749;49.606;8.738;2022-07-19T04:01:17;23.50;74.10
28546;DHT22;15749;49.606;8.738;2022-07-19T04:04:12;23.50;73.70
28546;DHT22;15749;49.606;8.738;2022-07-19T04:06:59;23.50;73.90
28546;DHT22;15749;49.606;8.738;2022-07-19T04:09:48;23.40;74.50
28546;DHT22;15749;49.606;8.738;2022-07-19T04:12:36;23.40;73.70
28546;DHT22;15749;49.606;8.738;2022-07-19T04:15:23;23.40;73.40
28546;DHT22;15749;49.606;8.738;2022-07-19T04:18:11;23.30;73.40
28546;DHT22;15749;49.606;8.738;2022-07-19T04:20:58;23.30;73.80
28546;DHT22;15749;49.606;8.738;2022-07-19T04:23:46;23.30;73.00
28546;DHT22;15749;49.606;8.738;2022-07-19T04:26:35;23.30;73.30
28546;DHT22;15749;49.606;8.738;2022-07-19T04:29:22;23.30;73.40
28546;DHT22;15749;49.606;8.738;2022-07-19T04:32:10;23.20;73.90
28546;DHT22;15749;49.606;8.738;2022-07-19T04:35:06;23.20;74.00
28546;DHT22;15749;49.606;8.738;2022-07-19T04:37:54;23.20;74.30
28546;DHT22;15749;49.606;8.738;2022-07-19T04:40:41;23.10;73.70
28546;DHT22;15749;49.606;8.738;2022-07-19T04:43:30;23.10;74.60
28546;DHT22;15749;49.606;8.738;2022-07-19T04:46:18;23.10;73.50
28546;DHT22;15749;49.606;8.738;2022-07-19T04:49:06;23.10;74.60
28546;DHT22;15749;49.606;8.738;2022-07-19T04:51:54;23.10;75.40
28546;DHT22;15749;49.606;8.738;2022-07-19T04:54:43;23.10;74.80
28546;DHT22;15749;49.606;8.738;2022-07-19T04:57:32;23.10;74.00
28546;DHT22;15749;49.606;8.738;2022-07-19T05:00:21;23.10;74.40
28546;DHT22;15749;49.606;8.738;2022-07-19T05:03:09;23.10;74.50
28546;DHT22;15749;49.606;8.738;2022-07-19T05:05:57;23.10;74.30
28546;DHT22;15749;49.606;8.738;2022-07-19T05:08:45;23.10;74.30
28546;DHT22;15749;49.606;8.738;2022-07-19T05:11:32;23.10;74.70
28546;DHT22;15749;49.606;8.738;2022-07-19T05:14:21;23.10;74.50
28546;DHT22;15749;49.606;8.738;2022-07-19T05:17:13;23.10;74.70
28546;DHT22;15749;49.606;8.738;2022-07-19T05:20:03;23.10;75.20
28546;DHT22;15749;49.606;8.738;2022-07-19T05:22:54;23.10;75.50
28546;DHT22;15749;49.606;8.738;2022-07-19T05:25:41;23.10;74.90
28546;DHT22;15749;49.606;8.738;2022-07-19T05:28:29;23.10;75.20
28546;DHT22;15749;49.606;8.738;2022-07-19T05:31:21;23.10;75.40
28546;DHT22;15749;49.606;8.738;2022-07-19T05:34:14;23.10;75.50
28546;DHT22;15749;49.606;8.738;2022-07-19T05:37:02;23.20;75.20
28546;DHT22;15749;49.606;8.738;2022-07-19T05:39:51;23.20;76.60
28546;DHT22;15749;49.606;8.738;2022-07-19T05:42:39;23.20;75.10
28546;DHT22;15749;49.606;8.738;2022-07-19T05:45:27;23.20;76.00
28546;DHT22;15749;49.606;8.738;2022-07-19T05:48:15;23.20;75.80
28546;DHT22;15749;49.606;8.738;2022-07-19T05:51:11;23.20;76.60
28546;DHT22;15749;49.606;8.738;2022-07-19T05:54:03;23.30;76.90
28546;DHT22;15749;49.606;8.738;2022-07-19T05:56:52;23.30;77.10
28546;DHT22;15749;49.606;8.738;2022-07-19T05:59:40;23.30;76.40
28546;DHT22;15749;49.606;8.738;2022-07-19T06:02:28;23.30;76.30
28546;DHT22;15749;49.606;8.738;2022-07-19T06:05:16;23.40;76.70
28546;DHT22;15749;49.606;8.738;2022-07-19T06:08:06;23.40;76.80
28546;DHT22;15749;49.606;8.738;2022-07-19T06:10:56;23.40;76.70
28546;DHT22;15749;49.606;8.738;2022-07-19T06:13:53;23.50;76.60
28546;DHT22;15749;49.606;8.738;2022-07-19T06:16:42;23.50;75.30
28546;DHT22;15749;49.606;8.738;2022-07-19T06:19:29;23.50;75.80
28546;DHT22;15749;49.606;8.738;2022-07-19T06:22:17;23.50;75.50
28546;DHT22;15749;49.606;8.738;2022-07-19T06:25:07;23.50;76.40
28546;DHT22;15749;49.606;8.738;2022-07-19T06:27:55;23.60;76.50
28546;DHT22;15749;49.606;8.738;2022-07-19T06:30:43;23.60;75.00
28546;DHT22;15749;49.606;8.738;2022-07-19T06:33:31;23.70;75.70
28546;DHT22;15749;49.606;8.738;2022-07-19T06:36:44;23.70;76.00
28546;DHT22;15749;49.606;8.738;2022-07-19T06:39:32;23.80;77.60
28546;DHT22;15749;49.606;8.738;2022-07-19T06:42:20;23.80;77.20
28546;DHT22;15749;49.606;8.738;2022-07-19T06:45:09;23.90;76.90
28546;DHT22;15749;49.606;8.738;2022-07-19T06:47:57;24.00;76.60
28546;DHT22;15749;49.606;8.738;2022-07-19T06:50:45;24.00;76.90
28546;DHT22;15749;49.606;8.738;2022-07-19T06:53:35;24.10;77.30
28546;DHT22;15749;49.606;8.738;2022-07-19T06:56:23;24.20;78.00
28546;DHT22;15749;49.606;8.738;2022-07-19T06:59:12;24.20;78.00
28546;DHT22;15749;49.606;8.738;2022-07-19T07:02:00;24.30;78.10
28546;DHT22;15749;49.606;8.738;2022-07-19T07:04:50;24.40;78.10
28546;DHT22;15749;49.606;8.738;2022-07-19T07:07:38;24.40;78.20
28546;DHT22;15749;49.606;8.738;2022-07-19T07:10:29;24.50;78.20
28546;DHT22;15749;49.606;8.738;2022-07-19T07:13:17;24.60;78.00
28546;DHT22;15749;49.606;8.738;2022-07-19T07:16:05;24.70;77.80
28546;DHT22;15749;49.606;8.738;2022-07-19T07:18:54;24.80;77.60
28546;DHT22;15749;49.606;8.738;2022-07-19T07:21:42;24.90;76.40
28546;DHT22;15749;49.606;8.738;2022-07-19T07:24:30;24.90;77.60
28546;DHT22;15749;49.606;8.738;2022-07-19T07:27:21;25.00;77.80
28546;DHT22;15749;49.606;8.738;2022-07-19T07:30:10;25.10;77.50
28546;DHT22;15749;49.606;8.738;2022-07-19T07:32:58;25.20;78.30
28546;DHT22;15749;49.606;8.738;2022-07-19T07:35:46;25.30;78.50
28546;DHT22;15749;49.606;8.738;2022-07-19T07:38:34;25.40;78.00
28546;DHT22;15749;49.606;8.738;2022-07-19T07:41:22;25.50;77.30
28546;DHT22;15749;49.606;8.738;2022-07-19T07:44:31;25.60;78.00
28546;DHT22;15749;49.606;8.738;2022-07-19T07:47:20;25.70;77.00
28546;DHT22;15749;49.606;8.738;2022-07-19T07:50:08;25.80;74.30
28546;DHT22;15749;49.606;8.738;2022-07-19T07:52:56;25.80;77.00
28546;DHT22;15749;49.606;8.738;2022-07-19T07:55:43;25.90;77.00
28546;DHT22;15749;49.606;8.738;2022-07-19T07:58:31;26.10;76.30
28546;DHT22;15749;49.606;8.738;2022-07-19T08:01:20;26.20;76.50
28546;DHT22;15749;49.606;8.738;2022-07-19T08:04:08;26.30;76.20
28546;DHT22;15749;49.606;8.738;2022-07-19T08:06:56;26.40;76.30
28546;DHT22;15749;49.606;8.738;2022-07-19T08:09:44;26.50;75.30
28546;DHT22;15749;49.606;8.738;2022-07-19T08:12:31;26.60;75.30
28546;DHT22;15749;49.606;8.738;2022-07-19T08:15:19;26.70;74.50
28546;DHT22;15749;49.606;8.738;2022-07-19T08:18:08;26.80;75.00
28546;DHT22;15749;49.606;8.738;2022-07-19T08:20:56;26.90;73.70
28546;DHT22;15749;49.606;8.738;2022-07-19T08:23:43;27.10;74.50
28546;DHT22;15749;49.606;8.738;2022-07-19T08:26:30;27.20;73.30
28546;DHT22;15749;49.606;8.738;2022-07-19T08:29:18;27.30;74.10
28546;DHT22;15749;49.606;8.738;2022-07-19T08:32:06;27.40;73.90
28546;DHT22;15749;49.606;8.738;2022-07-19T08:34:55;27.50;73.80
28546;DHT22;15749;49.606;8.738;2022-07-19T08:37:42;27.60;72.60
28546;DHT22;15749;49.606;8.738;2022-07-19T08:40:32;27.70;74.80
28546;DHT22;15749;49.606;8.738;2022-07-19T08:43:20;27.80;72.50
28546;DHT22;15749;49.606;8.738;2022-07-19T08:46:08;27.90;71.60
28546;DHT22;15749;49.606;8.738;2022-07-19T08:48:56;28.00;70.90
28546;DHT22;15749;49.606;8.738;2022-07-19T08:51:47;28.20;70.20
28546;DHT22;15749;49.606;8.738;2022-07-19T08:54:35;28.30;68.90
28546;DHT22;15749;49.606;8.738;2022-07-19T08:57:22;28.30;68.60
28546;DHT22;15749;49.606;8.738;2022-07-19T09:00:32;28.50;67.80
28546;DHT22;15749;49.606;8.738;2022-07-19T09:03:21;28.60;66.70
28546;DHT22;15749;49.606;8.738;2022-07-19T09:06:08;28.70;66.80
28546;DHT22;15749;49.606;8.738;2022-07-19T09:09:02;28.90;66.60
28546;DHT22;15749;49.606;8.738;2022-07-19T09:11:52;29.00;64.20
28546;DHT22;15749;49.606;8.738;2022-07-19T09:14:41;29.10;65.00
28546;DHT22;15749;49.606;8.738;2022-07-19T09:17:29;29.20;64.00
28546;DHT22;15749;49.606;8.738;2022-07-19T09:20:26;29.40;63.50
28546;DHT22;15749;49.606;8.738;2022-07-19T09:23:15;29.50;60.80
28546;DHT22;15749;49.606;8.738;2022-07-19T09:26:08;29.60;62.10
28546;DHT22;15749;49.606;8.738;2022-07-19T09:29:16;29.80;63.20
28546;DHT22;15749;49.606;8.738;2022-07-19T09:32:07;29.90;61.80
28546;DHT22;15749;49.606;8.738;2022-07-19T09:34:58;30.10;62.90
28546;DHT22;15749;49.606;8.738;2022-07-19T09:37:50;30.20;60.60
28546;DHT22;15749;49.606;8.738;2022-07-19T09:40:43;30.30;60.90
28546;DHT22;15749;49.606;8.738;2022-07-19T09:43:49;30.40;61.90
28546;DHT22;15749;49.606;8.738;2022-07-19T09:46:41;30.60;61.40
28546;DHT22;15749;49.606;8.738;2022-07-19T09:49:31;30.60;61.70
28546;DHT22;15749;49.606;8.738;2022-07-19T09:52:20;30.70;61.00
28546;DHT22;15749;49.606;8.738;2022-07-19T09:55:08;30.80;59.20
28546;DHT22;15749;49.606;8.738;2022-07-19T09:57:57;30.90;60.10
28546;DHT22;15749;49.606;8.738;2022-07-19T10:00:48;31.00;60.00
28546;DHT22;15749;49.606;8.738;2022-07-19T10:03:36;31.10;58.70
28546;DHT22;15749;49.606;8.738;2022-07-19T10:06:25;31.20;58.50
28546;DHT22;15749;49.606;8.738;2022-07-19T10:09:16;31.30;58.00
28546;DHT22;15749;49.606;8.738;2022-07-19T10:12:15;31.40;55.90
28546;DHT22;15749;49.606;8.738;2022-07-19T10:15:06;31.50;56.80
28546;DHT22;15749;49.606;8.738;2022-07-19T10:18:08;31.50;56.40
28546;DHT22;15749;49.606;8.738;2022-07-19T10:21:00;31.70;57.60
28546;DHT22;15749;49.606;8.738;2022-07-19T10:23:50;31.80;57.70
28546;DHT22;15749;49.606;8.738;2022-07-19T10:26:39;31.80;54.90
28546;DHT22;15749;49.606;8.738;2022-07-19T10:29:28;32.00;54.40
28546;DHT22;15749;49.606;8.738;2022-07-19T10:32:20;32.00;55.30
28546;DHT22;15749;49.606;8.738;2022-07-19T10:35:17;32.10;55.80
28546;DHT22;15749;49.606;8.738;2022-07-19T10:38:08;32.20;53.70
28546;DHT22;15749;49.606;8.738;2022-07-19T10:40:56;32.30;56.20
28546;DHT22;15749;49.606;8.738;2022-07-19T10:44:07;32.40;55.70
28546;DHT22;15749;49.606;8.738;2022-07-19T10:46:55;32.50;55.50
28546;DHT22;15749;49.606;8.738;2022-07-19T10:49:45;32.50;53.90
28546;DHT22;15749;49.606;8.738;2022-07-19T10:52:37;32.60;54.10
28546;DHT22;15749;49.606;8.738;2022-07-19T10:55:26;32.70;52.80
28546;DHT22;15749;49.606;8.738;2022-07-19T10:58:14;32.70;52.40
28546;DHT22;15749;49.606;8.738;2022-07-19T11:01:14;32.80;53.80
28546;DHT22;15749;49.606;8.738;2022-07-19T11:04:23;32.90;53.40
28546;DHT22;15749;49.606;8.738;2022-07-19T11:07:15;33.00;51.40
28546;DHT22;15749;49.606;8.738;2022-07-19T11:10:08;33.10;51.80
28546;DHT22;15749;49.606;8.738;2022-07-19T11:12:58;33.10;50.10
28546;DHT22;15749;49.606;8.738;2022-07-19T11:15:54;33.20;52.10
28546;DHT22;15749;49.606;8.738;2022-07-19T11:18:42;33.20;48.60
28546;DHT22;15749;49.606;8.738;2022-07-19T11:21:32;33.30;49.40
28546;DHT22;15749;49.606;8.738;2022-07-19T11:24:21;33.40;48.60
28546;DHT22;15749;49.606;8.738;2022-07-19T11:27:10;33.40;49.00
28546;DHT22;15749;49.606;8.738;2022-07-19T11:29:59;33.50;48.50
28546;DHT22;15749;49.606;8.738;2022-07-19T11:32:51;33.60;50.50
28546;DHT22;15749;49.606;8.738;2022-07-19T11:35:39;33.70;50.90
28546;DHT22;15749;49.606;8.738;2022-07-19T11:38:34;33.70;49.60
28546;DHT22;15749;49.606;8.738;2022-07-19T11:41:25;33.80;47.60
28546;DHT22;15749;49.606;8.738;2022-07-19T11:44:15;33.80;47.50
28546;DHT22;15749;49.606;8.738;2022-07-19T11:47:03;33.80;49.90
28546;DHT22;15749;49.606;8.738;2022-07-19T11:49:50;33.90;49.70
28546;DHT22;15749;49.606;8.738;2022-07-19T11:52:45;33.90;49.20
28546;DHT22;15749;49.606;8.738;2022-07-19T11:55:36;33.90;51.10
28546;DHT22;15749;49.606;8.738;2022-07-19T11:58:24;33.90;50.00
28546;DHT22;15749;49.606;8.738;2022-07-19T12:01:13;34.00;51.30
28546;DHT22;15749;49.606;8.738;2022-07-19T12:04:04;34.00;49.40
28546;DHT22;15749;49.606;8.738;2022-07-19T12:06:52;34.00;50.50
28546;DHT22;15749;49.606;8.738;2022-07-19T12:09:40;34.00;51.20
28546;DHT22;15749;49.606;8.738;2022-07-19T12:12:40;34.00;49.60
28546;DHT22;15749;49.606;8.738;2022-07-19T12:15:42;34.00;48.30
28546;DHT22;15749;49.606;8.738;2022-07-19T12:18:47;34.00;46.80
28546;DHT22;15749;49.606;8.738;2022-07-19T12:21:40;34.00;48.00
28546;DHT22;15749;49.606;8.738;2022-07-19T12:24:29;34.00;48.10
28546;DHT22;15749;49.606;8.738;2022-07-19T12:27:17;34.00;48.40
28546;DHT22;15749;49.606;8.738;2022-07-19T12:30:16;34.10;46.50
28546;DHT22;15749;49.606;8.738;2022-07-19T12:33:10;34.10;46.50
28546;DHT22;15749;49.606;8.738;2022-07-19T12:35:59;34.10;46.90
28546;DHT22;15749;49.606;8.738;2022-07-19T12:38:47;34.10;45.70
28546;DHT22;15749;49.606;8.738;2022-07-19T12:41:34;34.10;45.30
28546;DHT22;15749;49.606;8.738;2022-07-19T12:44:22;34.20;45.80
28546;DHT22;15749;49.606;8.738;2022-07-19T12:47:09;34.20;45.10
28546;DHT22;15749;49.606;8.738;2022-07-19T12:50:22;34.20;44.70
28546;DHT22;15749;49.606;8.738;2022-07-19T12:53:14;34.30;46.10
28546;DHT22;15749;49.606;8.738;2022-07-19T12:56:02;34.30;47.00
28546;DHT22;15749;49.606;8.738;2022-07-19T12:58:50;34.30;46.50
28546;DHT22;15749;49.606;8.738;2022-07-19T13:01:55;34.40;46.30
28546;DHT22;15749;49.606;8.738;2022-07-19T13:04:44;34.40;48.00
28546;DHT22;15749;49.606;8.738;2022-07-19T13:07:32;34.40;47.30
28546;DHT22;15749;49.606;8.738;2022-07-19T13:10:21;34.40;47.90
28546;DHT22;15749;49.606;8.738;2022-07-19T13:13:09;34.40;48.20
28546;DHT22;15749;49.606;8.738;2022-07-19T13:15:57;34.40;46.50
28546;DHT22;15749;49.606;8.738;2022-07-19T13:18:44;34.40;45.30
28546;DHT22;15749;49.606;8.738;2022-07-19T13:21:32;34.40;46.90
28546;DHT22;15749;49.606;8.738;2022-07-19T13:24:21;34.40;44.30
28546;DHT22;15749;49.606;8.738;2022-07-19T13:27:30;34.40;45.50
28546;DHT22;15749;49.606;8.738;2022-07-19T13:30:17;34.40;43.30
28546;DHT22;15749;49.606;8.738;2022-07-19T13:33:04;34.40;45.90
28546;DHT22;15749;49.606;8.738;2022-07-19T13:35:54;34.40;44.90
28546;DHT22;15749;49.606;8.738;2022-07-19T13:38:44;34.40;45.60
28546;DHT22;15749;49.606;8.738;2022-07-19T13:41:35;34.50;45.50
28546;DHT22;15749;49.606;8.738;2022-07-19T13:44:25;34.50;45.80
28546;DHT22;15749;49.606;8.738;2022-07-19T13:47:13;34.50;44.10
28546;DHT22;15749;49.606;8.738;2022-07-19T13:50:00;34.50;44.40
28546;DHT22;15749;49.606;8.738;2022-07-19T13:52:47;34.50;43.60
28546;DHT22;15749;49.606;8.738;2022-07-19T13:55:35;34.50;42.10
28546;DHT22;15749;49.606;8.738;2022-07-19T13:58:22;34.50;42.90
28546;DHT22;15749;49.606;8.738;2022-07-19T14:01:12;34.50;42.80
28546;DHT22;15749;49.606;8.738;2022-07-19T14:04:20;34.50;44.40
28546;DHT22;15749;49.606;8.738;2022-07-19T14:07:08;34.50;42.40
28546;DHT22;15749;49.606;8.738;2022-07-19T14:09:55;34.50;43.90
28546;DHT22;15749;49.606;8.738;2022-07-19T14:12:43;34.50;43.10
28546;DHT22;15749;49.606;8.738;2022-07-19T14:15:31;34.50;44.70
28546;DHT22;15749;49.606;8.738;2022-07-19T14:18:20;34.60;42.60
28546;DHT22;15749;49.606;8.738;2022-07-19T14:21:08;34.60;41.00
28546;DHT22;15749;49.606;8.738;2022-07-19T14:23:55;34.60;41.40
28546;DHT22;15749;49.606;8.738;2022-07-19T14:26:42;34.60;43.60
28546;DHT22;15749;49.606;8.738;2022-07-19T14:29:30;34.60;41.90
28546;DHT22;15749;49.606;8.738;2022-07-19T14:32:18;34.60;43.50
28546;DHT22;15749;49.606;8.738;2022-07-19T14:35:08;34.70;42.00
28546;DHT22;15749;49.606;8.738;2022-07-19T14:37:56;34.70;41.30
28546;DHT22;15749;49.606;8.738;2022-07-19T14:40:43;34.70;40.80
28546;DHT22;15749;49.606;8.738;2022-07-19T14:43:31;34.70;41.00
28546;DHT22;15749;49.606;8.738;2022-07-19T14:46:19;34.70;43.60
28546;DHT22;15749;49.606;8.738;2022-07-19T14:49:06;34.70;42.70
28546;DHT22;15749;49.606;8.738;2022-07-19T14:51:55;34.80;42.60
28546;DHT22;15749;49.606;8.738;2022-07-19T14:54:43;34.80;41.90
28546;DHT22;15749;49.606;8.738;2022-07-19T14:57:30;34.80;41.70
28546;DHT22;15749;49.606;8.738;2022-07-19T15:00:17;34.80;40.50
28546;DHT22;15749;49.606;8.738;2022-07-19T15:03:05;34.80;40.80
28546;DHT22;15749;49.606;8.738;2022-07-19T15:05:52;34.80;40.90
28546;DHT22;15749;49.606;8.738;2022-07-19T15:08:41;34.80;41.90
28546;DHT22;15749;49.606;8.738;2022-07-19T15:11:29;34.80;42.40
28546;DHT22;15749;49.606;8.738;2022-07-19T15:14:19;34.80;41.20
28546;DHT22;15749;49.606;8.738;2022-07-19T15:17:06;34.80;40.90
28546;DHT22;15749;49.606;8.738;2022-07-19T15:19:54;34.80;42.30
28546;DHT22;15749;49.606;8.738;2022-07-19T15:22:42;34.80;41.00
28546;DHT22;15749;49.606;8.738;2022-07-19T15:25:30;34.80;42.00
28546;DHT22;15749;49.606;8.738;2022-07-19T15:28:18;34.90;40.20
28546;DHT22;15749;49.606;8.738;2022-07-19T15:31:06;34.90;40.60
28546;DHT22;15749;49.606;8.738;2022-07-19T15:33:53;34.90;41.20
28546;DHT22;15749;49.606;8.738;2022-07-19T15:36:41;34.90;42.00
28546;DHT22;15749;49.606;8.738;2022-07-19T15:39:29;34.90;42.10
28546;DHT22;15749;49.606;8.738;2022-07-19T15:42:18;34.90;41.80
28546;DHT22;15749;49.606;8.738;2022-07-19T15:45:06;34.90;42.00
28546;DHT22;15749;49.606;8.738;2022-07-19T15:47:54;34.90;43.40
28546;DHT22;15749;49.606;8.738;2022-07-19T15:50:41;34.90;40.10
28546;DHT22;15749;49.606;8.738;2022-07-19T15:53:29;34.90;40.40
28546;DHT22;15749;49.606;8.738;2022-07-19T15:56:18;34.90;40.40
28546;DHT22;15749;49.606;8.738;2022-07-19T15:59:06;35.00;39.90
28546;DHT22;15749;49.606;8.738;2022-07-19T16:01:54;35.00;38.90
28546;DHT22;15749;49.606;8.738;2022-07-19T16:04:42;35.00;41.50
28546;DHT22;15749;49.606;8.738;2022-07-19T16:07:33;35.00;41.20
28546;DHT22;15749;49.606;8.738;2022-07-19T16:10:21;35.00;40.50
28546;DHT22;15749;49.606;8.738;2022-07-19T16:13:12;35.00;39.20
28546;DHT22;15749;49.606;8.738;2022-07-19T16:16:00;35.10;41.20
28546;DHT22;15749;49.606;8.738;2022-07-19T16:18:48;35.10;38.80
28546;DHT22;15749;49.606;8.738;2022-07-19T16:21:37;35.00;40.10
28546;DHT22;15749;49.606;8.738;2022-07-19T16:24:25;35.10;41.20
28546;DHT22;15749;49.606;8.738;2022-07-19T16:27:13;35.10;40.60
28546;DHT22;15749;49.606;8.738;2022-07-19T16:30:07;35.00;39.00
28546;DHT22;15749;49.606;8.738;2022-07-19T16:32:56;35.10;40.00
28546;DHT22;15749;49.606;8.738;2022-07-19T16:35:44;35.10;40.30
28546;DHT22;15749;49.606;8.738;2022-07-19T16:38:32;35.10;40.70
28546;DHT22;15749;49.606;8.738;2022-07-19T16:41:20;35.10;41.10
28546;DHT22;15749;49.606;8.738;2022-07-19T16:44:07;35.10;39.30
28546;DHT22;15749;49.606;8.738;2022-07-19T16:46:54;35.10;38.70
28546;DHT22;15749;49.606;8.738;2022-07-19T16:49:44;35.10;42.30
28546;DHT22;15749;49.606;8.738;2022-07-19T16:52:32;35.00;38.90
28546;DHT22;15749;49.606;8.738;2022-07-19T16:55:20;35.10;40.30
28546;DHT22;15749;49.606;8.738;2022-07-19T16:58:08;35.10;40.90
28546;DHT22;15749;49.606;8.738;2022-07-19T17:00:56;35.00;40.00
28546;DHT22;15749;49.606;8.738;2022-07-19T17:03:43;35.00;39.10
28546;DHT22;15749;49.606;8.738;2022-07-19T17:06:32;35.00;38.50
28546;DHT22;15749;49.606;8.738;2022-07-19T17:09:20;35.10;39.20
28546;DHT22;15749;49.606;8.738;2022-07-19T17:12:08;35.10;40.30
28546;DHT22;15749;49.606;8.738;2022-07-19T17:14:55;35.10;38.70
28546;DHT22;15749;49.606;8.738;2022-07-19T17:17:43;35.00;37.60
28546;DHT22;15749;49.606;8.738;2022-07-19T17:20:30;35.00;40.20
28546;DHT22;15749;49.606;8.738;2022-07-19T17:23:19;35.10;39.80
28546;DHT22;15749;49.606;8.738;2022-07-19T17:26:07;35.10;40.20
28546;DHT22;15749;49.606;8.738;2022-07-19T17:28:54;35.10;38.60
28546;DHT22;15749;49.606;8.738;2022-07-19T17:31:42;35.10;38.90
28546;DHT22;15749;49.606;8.738;2022-07-19T17:34:29;35.00;38.60
28546;DHT22;15749;49.606;8.738;2022-07-19T17:37:17;35.00;38.40
28546;DHT22;15749;49.606;8.738;2022-07-19T17:40:08;35.00;40.10
28546;DHT22;15749;49.606;8.738;2022-07-19T17:42:56;35.00;39.60
28546;DHT22;15749;49.606;8.738;2022-07-19T17:45:44;35.00;38.10
28546;DHT22;15749;49.606;8.738;2022-07-19T17:48:32;35.00;37.90